logo
Search for airport 
image banner adimage banner adimage banner ad
image banner ad

ED3143 - Calmont/Bremm

Located in , Germany

ICAO - , IATA -

Data provided by Airmate  

General information

Coordinates: N50°6'25" E7°6'54"
Elevation is 1164 feet MSL.
 
View others Airports in Rhineland-Palatinate

Operational data

Special qualification required
Current time UTC:
Current local time:
Weather at : ETSB - Buechel ( 8 km )
METAR: ETSB 161920Z AUTO 28006KT //// // ////// 16/12 Q1017 ///
TAF: TAF ETSB 161326Z 1614/1623 23012KT 9999 NSW SCT012 BKN040 TEMPO 1614/1617 24015G25KT 4000 SHRA BKN012TCU PROB30 1614/1617 VRB15G30KT 2000 TSRA BKN010CB
View NOTAMs / SUP AIP / TFR affecting this airport [VIEW]
Communications frequencies: [VIEW]

Runways:

Airport contact information

Address: Germany

Satellite view of ED3143